Search for airport 
image banner adimage banner adimage banner ad
image banner ad

92PN - Bartsch

Located in New Wilmington, United States

ICAO - 92PN, IATA -

Data provided by Airmate  

General information

Coordinates: N41°4'6" W80°17'41"
Elevation is 1150 feet MSL.
 
View others Airports in Pennsylvania

Operational data

Special qualification required
Current time UTC:
Current local time:
Weather at : KUCP - New Castle Muni ( 11 km )
METAR: KUCP 182356Z AUTO 00000KT 10SM CLR 23/11 A3028 RMK AO2 SLP266 T02330106 10267 20233 56004
View NOTAMs / SUP AIP / TFR affecting this airport [VIEW]
Communications frequencies: [VIEW]

Runways:

RWY identifierQFULength (ft)Width (ft)SurfaceLDA (ft)
182650100GRASS
362650100GRASS

Airport contact information

Address: New Wilmington United States

Satellite view of 92PN